Time;durP1;ratioP1;P1;durP2;ratioP2;P2;SDS_P1;SDS_P2;PMS_P1;PMS_P2;Temp;Humidity;BMP_temperature;BMP_pressure;BME280_temperature;BME280_humidity;BME280_pressure;Samples;Min_cycle;Max_cycle;Signal;HPM_P1;HPM_P2
2022/08/31 08:01:55;;;;;;;4.13;1.92;;;;;;;18.22;59.70;102003.53;5287042;28;20388;-75
2022/08/31 08:04:27;;;;;;;2.60;2.03;;;;;;;18.12;58.43;102009.38;5285367;28;20028;-75
2022/08/31 08:06:59;;;;;;;6.18;5.43;;;;;;;18.39;58.69;102002.09;5284494;28;20037;-74
2022/08/31 08:09:37;;;;;;;14.60;12.07;;;;;;;18.41;58.15;102009.06;5296243;28;20032;-74
2022/08/31 08:12:08;;;;;;;4.18;3.55;;;;;;;18.28;58.47;102003.44;5277870;28;20043;-74
2022/08/31 08:14:40;;;;;;;3.97;2.50;;;;;;;18.33;58.69;102008.94;5277729;28;20021;-74
2022/08/31 08:17:11;;;;;;;3.90;1.75;;;;;;;18.80;58.12;102013.25;5279517;28;20097;-74
2022/08/31 08:19:42;;;;;;;3.22;2.20;;;;;;;18.67;57.78;102014.91;5289771;28;20024;-74
2022/08/31 08:22:14;;;;;;;5.90;3.10;;;;;;;18.61;57.77;102021.81;5278758;28;20070;-73
2022/08/31 08:24:46;;;;;;;3.33;3.03;;;;;;;18.61;57.56;102023.75;5285477;28;20067;-74
2022/08/31 08:27:17;;;;;;;5.38;2.80;;;;;;;18.55;58.00;102023.06;5295228;28;20494;-74
2022/08/31 08:29:48;;;;;;;2.95;2.10;;;;;;;18.86;57.94;102023.19;5286179;28;20122;-74
2022/08/31 08:32:19;;;;;;;7.93;2.72;;;;;;;18.82;57.87;102027.00;5292139;28;20075;-75
2022/08/31 08:34:51;;;;;;;6.00;3.13;;;;;;;18.78;57.70;102021.16;5284223;28;20078;-74
2022/08/31 08:37:22;;;;;;;2.90;2.60;;;;;;;18.88;57.14;102031.31;5284110;28;20467;-74
2022/08/31 08:39:58;;;;;;;3.03;2.08;;;;;;;19.08;57.71;102030.84;5291729;28;20537;-75
2022/08/31 08:42:29;;;;;;;;;;;;;;;19.14;57.58;102031.53;5291916;28;20390;-74
2022/08/31 08:45:00;;;;;;;5.77;3.30;;;;;;;19.00;57.47;102036.41;5282888;28;19913;-74
2022/08/31 08:47:35;;;;;;;6.32;2.83;;;;;;;18.94;57.99;102035.66;5294670;28;20282;-75
2022/08/31 08:50:09;;;;;;;3.67;3.20;;;;;;;19.03;58.04;102030.13;5276372;28;20383;-74
2022/08/31 08:52:43;;;;;;;3.72;2.38;;;;;;;19.13;58.08;102031.88;5289514;28;20027;-74
2022/08/31 08:55:18;;;;;;;5.65;3.17;;;;;;;19.13;57.90;102023.44;5267945;28;20025;-74
2022/08/31 08:57:50;;;;;;;3.45;3.15;;;;;;;19.07;58.26;102029.19;5292658;28;20414;-73
2022/08/31 09:00:24;;;;;;;5.68;2.65;;;;;;;18.99;58.02;102029.91;5289206;28;20106;-72
2022/08/31 09:03:19;;;;;;;5.10;2.90;;;;;;;19.20;58.13;102021.84;5282770;28;20380;-73
2022/08/31 09:05:58;;;;;;;3.13;2.13;;;;;;;19.48;57.78;102027.28;5272129;28;20031;-75
2022/08/31 09:08:36;;;;;;;6.40;2.70;;;;;;;19.46;56.97;102024.00;5286490;28;20036;-75
2022/08/31 09:11:16;;;;;;;4.68;3.03;;;;;;;19.47;57.03;102020.84;5279277;28;20116;-75
2022/08/31 09:14:09;;;;;;;4.60;2.58;;;;;;;19.54;57.56;102026.00;5279183;28;20079;-74
2022/08/31 09:16:59;;;;;;;2.88;2.58;;;;;;;19.87;57.02;102020.09;5265441;28;20475;-75
2022/08/31 09:19:57;;;;;;;4.35;2.42;;;;;;;20.02;56.24;102019.66;5282106;28;20029;-82
2022/08/31 09:22:48;;;;;;;5.72;3.08;;;;;;;19.91;56.30;102021.09;5260423;28;20038;-68
2022/08/31 09:25:36;;;;;;;5.60;3.53;;;;;;;19.90;56.29;102022.25;5251657;28;21150;-67
2022/08/31 09:28:10;;;;;;;4.40;3.30;;;;;;;19.80;55.95;102016.91;5267405;28;20021;-67
2022/08/31 09:30:44;;;;;;;3.28;2.78;;;;;;;20.04;55.87;102010.88;5275945;28;20024;-67
2022/08/31 09:33:33;;;;;;;6.05;3.75;;;;;;;20.11;56.23;102020.50;5268067;28;20028;-67
2022/08/31 09:36:21;;;;;;;10.50;6.60;;;;;;;20.10;56.92;102012.41;5275723;28;20464;-68
2022/08/31 09:38:52;;;;;;;6.03;3.95;;;;;;;20.05;57.57;102016.19;5273524;28;20039;-67
2022/08/31 09:41:36;;;;;;;7.32;4.03;;;;;;;20.26;56.51;102022.03;5263698;28;20127;-67
2022/08/31 09:44:23;;;;;;;6.47;3.45;;;;;;;20.32;56.61;102017.06;5274543;28;20025;-67
2022/08/31 09:46:59;;;;;;;8.10;3.20;;;;;;;20.54;55.65;102024.59;5274684;28;20033;-67
2022/08/31 09:49:37;;;;;;;4.78;3.40;;;;;;;20.40;55.78;102019.94;5267877;28;20024;-68
2022/08/31 09:55:24;;;;;;;6.85;4.25;;;;;;;20.28;56.29;102019.72;5278239;28;20028;-67
2022/08/31 09:58:06;;;;;;;5.80;3.40;;;;;;;20.44;56.50;102019.25;5258087;28;20108;-67
2022/08/31 10:00:43;;;;;;;7.85;4.32;;;;;;;20.47;56.49;102019.44;5270292;28;20139;-67
2022/08/31 10:03:27;;;;;;;5.15;4.00;;;;;;;20.44;56.25;102013.63;5250820;28;20413;-67
2022/08/31 10:05:59;;;;;;;6.70;4.30;;;;;;;20.44;56.27;102008.00;5275817;28;20033;-67
2022/08/31 10:08:41;;;;;;;6.32;4.60;;;;;;;20.61;56.06;102005.25;5275687;28;20078;-67
2022/08/31 10:11:20;;;;;;;6.82;4.10;;;;;;;20.66;55.95;102013.53;5267164;28;20052;-66
2022/08/31 10:14:07;;;;;;;8.32;3.90;;;;;;;20.76;55.64;102009.53;5276145;28;20052;-67
2022/08/31 10:16:46;;;;;;;6.20;3.55;;;;;;;20.87;54.95;102001.59;5258221;28;20025;-67
2022/08/31 10:19:41;;;;;;;4.32;3.60;;;;;;;20.88;55.54;102009.69;5265222;28;20565;-67
2022/08/31 10:22:39;;;;;;;6.60;4.75;;;;;;;20.73;55.29;102004.56;5273721;28;20099;-67
2022/08/31 10:25:25;;;;;;;5.75;4.05;;;;;;;20.88;55.52;102012.53;5249442;28;20100;-67
2022/08/31 10:28:05;;;;;;;5.90;3.83;;;;;;;21.05;54.89;101994.78;5270038;28;20383;-67
2022/08/31 10:31:01;;;;;;;4.90;4.35;;;;;;;21.12;55.22;101997.94;5250433;28;20024;-67
2022/08/31 10:36:38;;;;;;;12.48;10.48;;;;;;;21.14;54.84;101998.44;5259692;28;20045;-67
2022/08/31 10:39:27;;;;;;;10.05;9.07;;;;;;;21.15;54.93;101991.63;5260016;28;20029;-67
2022/08/31 10:42:08;;;;;;;11.75;10.60;;;;;;;21.22;55.02;101994.75;5275076;28;20021;-73
2022/08/31 10:45:24;;;;;;;9.82;4.68;;;;;;;21.28;54.67;101993.41;5269225;28;20063;-68
2022/08/31 10:47:56;;;;;;;9.20;4.65;;;;;;;21.16;55.22;101990.44;5256883;28;20029;-68
2022/08/31 10:50:46;;;;;;;5.85;5.00;;;;;;;21.18;54.98;101979.66;5270949;28;20037;-68
2022/08/31 10:53:31;;;;;;;8.25;5.55;;;;;;;21.42;54.86;101993.25;5272632;28;20017;-68
2022/08/31 10:56:13;;;;;;;5.30;4.47;;;;;;;21.53;54.80;101988.06;5276439;28;20025;-68
2022/08/31 10:59:04;;;;;;;7.30;4.65;;;;;;;21.65;54.40;101985.38;5268470;28;20027;-65
2022/08/31 11:02:09;;;;;;;4.80;3.67;;;;;;;21.83;53.98;101986.13;5250558;28;20084;-71
2022/08/31 11:04:54;;;;;;;4.45;3.80;;;;;;;21.99;53.36;101982.75;5262858;28;20044;-69
2022/08/31 11:07:37;;;;;;;7.97;4.50;;;;;;;22.06;52.80;101981.03;5256933;28;20073;-69
2022/08/31 11:10:25;;;;;;;10.07;4.75;;;;;;;22.16;52.67;101982.63;5271174;28;20558;-69
2022/08/31 11:13:04;;;;;;;8.25;4.45;;;;;;;21.97;52.58;101977.41;5278107;28;20424;-69
2022/08/31 11:15:57;;;;;;;7.65;4.45;;;;;;;22.19;52.92;101986.75;5246670;28;20025;-68
2022/08/31 11:18:50;;;;;;;7.32;4.78;;;;;;;22.09;53.10;101988.81;5274060;28;20107;-68
2022/08/31 11:21:41;;;;;;;6.72;4.28;;;;;;;22.23;53.06;101982.13;5248447;28;20029;-69
2022/08/31 11:24:36;;;;;;;5.55;4.00;;;;;;;22.43;52.77;101988.97;5263113;28;20033;-68
2022/08/31 11:27:19;;;;;;;4.90;3.97;;;;;;;22.30;52.44;101982.41;5261550;28;20105;-69
2022/08/31 11:30:01;;;;;;;7.78;4.03;;;;;;;22.33;52.85;101973.25;5275262;28;20436;-69
2022/08/31 11:32:50;;;;;;;4.78;3.58;;;;;;;22.38;52.76;101975.06;5274429;28;20084;-69
2022/08/31 11:36:04;;;;;;;6.07;4.35;;;;;;;22.29;52.74;101970.28;5265713;28;20355;-70
2022/08/31 11:38:53;;;;;;;6.03;4.07;;;;;;;22.40;52.53;101975.53;5246978;28;20095;-67
2022/08/31 11:41:42;;;;;;;9.77;4.25;;;;;;;22.32;53.02;101965.94;5258801;28;20163;-72
2022/08/31 11:44:28;;;;;;;5.80;5.30;;;;;;;22.59;52.79;101961.75;5252928;28;20044;-68
2022/08/31 11:47:19;;;;;;;10.30;7.68;;;;;;;22.46;52.24;101963.66;5273292;28;20461;-69
2022/08/31 11:49:54;;;;;;;5.60;4.70;;;;;;;22.39;52.58;101956.91;5268136;28;20028;-69
2022/08/31 11:52:47;;;;;;;8.57;3.45;;;;;;;22.43;52.71;101960.72;5269595;28;20444;-70
2022/08/31 11:55:27;;;;;;;5.68;3.42;;;;;;;22.49;52.57;101962.16;5267558;28;20024;-69
2022/08/31 11:58:05;;;;;;;5.82;3.55;;;;;;;22.64;52.00;101952.22;5269228;28;20017;-69
2022/08/31 12:00:56;;;;;;;5.18;3.85;;;;;;;22.75;51.73;101947.78;5263068;28;20053;-69
2022/08/31 12:03:42;;;;;;;6.20;5.50;;;;;;;22.92;51.37;101949.66;5277400;28;20505;-69
2022/08/31 12:06:26;;;;;;;8.27;3.80;;;;;;;23.06;50.38;101949.38;5270324;28;20058;-69
2022/08/31 12:09:00;;;;;;;5.78;4.30;;;;;;;22.93;50.93;101949.31;5263987;28;20037;-69
2022/08/31 12:11:50;;;;;;;13.98;7.28;;;;;;;23.08;50.53;101944.19;5258781;28;20462;-69
2022/08/31 12:14:36;;;;;;;7.63;3.90;;;;;;;23.16;50.65;101934.78;5257844;28;20037;-69
2022/08/31 12:17:34;;;;;;;4.90;3.70;;;;;;;23.43;50.23;101934.13;5277413;28;20025;-69
2022/08/31 12:20:25;;;;;;;8.40;3.85;;;;;;;23.52;49.86;101931.22;5239806;28;20091;-69
2022/08/31 12:26:21;;;;;;;9.27;4.05;;;;;;;23.76;48.81;101930.41;5258056;28;20059;-68
2022/08/31 12:29:20;;;;;;;7.93;3.50;;;;;;;23.83;48.82;101922.16;5264988;28;20028;-68
2022/08/31 12:32:07;;;;;;;3.75;3.30;;;;;;;24.07;48.84;101914.81;5254284;28;20059;-68
2022/08/31 12:34:48;;;;;;;5.60;3.40;;;;;;;24.15;48.34;101919.53;5259584;28;20090;-67
2022/08/31 12:37:24;;;;;;;5.95;3.70;;;;;;;24.14;48.18;101909.38;5275621;28;20028;-67
2022/08/31 12:40:05;;;;;;;7.55;3.50;;;;;;;24.18;48.00;101924.47;5257713;28;20123;-67
2022/08/31 12:42:50;;;;;;;6.28;3.45;;;;;;;24.11;48.04;101915.75;5265978;28;20086;-66
2022/08/31 12:45:58;;;;;;;4.13;3.42;;;;;;;24.08;48.44;101905.97;5269292;28;20519;-67
2022/08/31 12:49:00;;;;;;;7.10;3.67;;;;;;;24.13;48.52;101907.72;5257656;28;20021;-68
2022/08/31 12:51:54;;;;;;;4.65;3.75;;;;;;;24.19;48.76;101906.31;5250625;28;20037;-68
2022/08/31 12:54:40;;;;;;;6.68;3.72;;;;;;;24.17;48.18;101897.31;5268994;28;20131;-67
2022/08/31 12:57:33;;;;;;;9.65;6.97;;;;;;;24.22;48.00;101899.09;5281421;28;20063;-67
2022/08/31 13:00:14;;;;;;;5.05;3.42;;;;;;;24.42;47.71;101889.59;5270728;28;20048;-68
2022/08/31 13:02:48;;;;;;;6.55;4.10;;;;;;;24.12;48.02;101897.56;5260005;28;20042;-68
2022/08/31 13:05:30;;;;;;;5.47;3.45;;;;;;;24.07;47.96;101892.97;5258002;28;20112;-69
2022/08/31 13:08:20;;;;;;;4.78;3.67;;;;;;;24.11;48.37;101886.56;5256959;28;20044;-69
2022/08/31 13:10:51;;;;;;;4.85;4.00;;;;;;;24.32;47.86;101890.09;5279594;28;20060;-68
2022/08/31 13:13:26;;;;;;;6.10;3.05;;;;;;;24.66;47.07;101883.00;5258418;28;20420;-69
2022/08/31 13:16:03;;;;;;;8.55;6.63;;;;;;;24.84;46.49;101894.03;5273423;28;20029;-68
2022/08/31 13:18:35;;;;;;;6.72;3.33;;;;;;;24.85;45.63;101890.00;5277226;28;20039;-68
2022/08/31 13:21:07;;;;;;;5.75;3.72;;;;;;;24.74;45.94;101896.19;5251022;28;20537;-68
2022/08/31 13:23:41;;;;;;;6.45;3.95;;;;;;;24.70;45.85;101894.47;5279381;28;20029;-66
2022/08/31 13:26:19;;;;;;;4.15;3.05;;;;;;;24.84;45.91;101877.84;5251368;28;20021;-69
2022/08/31 13:28:54;;;;;;;4.72;3.45;;;;;;;25.20;45.58;101878.84;5274612;28;20074;-68
2022/08/31 13:31:28;;;;;;;8.90;6.53;;;;;;;25.04;45.68;101878.78;5245512;28;20037;-67
2022/08/31 13:34:04;;;;;;;4.95;3.75;;;;;;;24.98;45.81;101880.25;5259872;28;20375;-69
2022/08/31 13:36:47;;;;;;;;;;;;;;;25.00;45.81;101875.03;5271106;28;20035;-68
2022/08/31 13:39:26;;;;;;;6.03;3.50;;;;;;;24.85;46.07;101868.16;5272692;28;19924;-68
2022/08/31 13:42:11;;;;;;;5.13;3.53;;;;;;;24.68;46.70;101877.00;5277003;28;20492;-68
2022/08/31 13:44:42;;;;;;;12.82;9.95;;;;;;;24.76;46.31;101869.50;5278448;28;20107;-68
2022/08/31 13:47:27;;;;;;;27.85;16.67;;;;;;;24.80;45.95;101861.91;5262093;28;20025;-68
2022/08/31 13:50:29;;;;;;;5.87;3.27;;;;;;;25.00;45.44;101863.66;5275518;28;20105;-70
2022/08/31 13:53:03;;;;;;;6.88;3.15;;;;;;;24.77;45.56;101862.63;5262313;28;20045;-68
2022/08/31 13:55:42;;;;;;;5.35;3.42;;;;;;;24.85;45.51;101862.50;5259443;28;20138;-68
2022/08/31 13:58:30;;;;;;;11.25;7.30;;;;;;;24.98;45.41;101862.38;5270505;28;20033;-69
2022/08/31 14:01:24;;;;;;;5.70;3.70;;;;;;;25.03;45.26;101862.97;5246286;28;20045;-70
2022/08/31 14:03:58;;;;;;;10.18;5.70;;;;;;;25.03;45.31;101856.44;5275897;28;20025;-68
2022/08/31 14:06:36;;;;;;;5.72;3.25;;;;;;;25.03;45.28;101854.47;5275371;28;20082;-67
2022/08/31 14:09:15;;;;;;;49.33;44.58;;;;;;;24.96;45.27;101851.44;5267351;28;20017;-67
2022/08/31 14:11:56;;;;;;;4.70;4.07;;;;;;;24.99;45.08;101856.38;5256733;28;20105;-67
2022/08/31 14:14:38;;;;;;;6.70;3.08;;;;;;;25.04;45.11;101856.09;5257523;28;20020;-67
2022/08/31 14:17:16;;;;;;;5.68;2.75;;;;;;;24.98;45.25;101851.88;5256890;28;20108;-67
2022/08/31 14:19:48;;;;;;;6.18;5.57;;;;;;;25.13;44.50;101856.75;5257859;28;20028;-67
2022/08/31 14:22:34;;;;;;;5.30;3.00;;;;;;;25.39;44.61;101846.91;5251539;28;20021;-67
2022/08/31 14:25:05;;;;;;;23.35;21.42;;;;;;;25.22;44.56;101852.94;5263881;28;20425;-67
2022/08/31 14:27:41;;;;;;;4.45;3.22;;;;;;;25.02;44.47;101854.81;5268523;28;20111;-67
2022/08/31 14:30:13;;;;;;;3.95;3.45;;;;;;;24.83;44.70;101858.38;5261823;28;20123;-68
2022/08/31 14:32:44;;;;;;;9.27;2.80;;;;;;;24.80;45.45;101853.38;5268033;28;20047;-68
2022/08/31 14:35:16;;;;;;;8.32;4.05;;;;;;;24.73;45.45;101848.38;5263167;28;20055;-68
2022/08/31 14:37:47;;;;;;;6.95;2.85;;;;;;;24.65;45.67;101858.69;5277215;28;20024;-68
2022/08/31 14:40:18;;;;;;;7.82;4.10;;;;;;;24.81;45.41;101843.72;5272732;28;20084;-69
2022/08/31 14:42:50;;;;;;;4.28;3.40;;;;;;;24.78;45.05;101847.28;5275112;28;20322;-67
2022/08/31 14:45:21;;;;;;;7.45;4.00;;;;;;;24.77;45.56;101837.91;5253217;28;20024;-67
2022/08/31 14:47:54;;;;;;;8.32;4.68;;;;;;;24.89;45.44;101835.03;5271742;28;20106;-67
2022/08/31 14:50:26;;;;;;;5.18;3.00;;;;;;;24.96;45.09;101825.88;5266210;28;20124;-68
2022/08/31 14:52:59;;;;;;;7.05;3.60;;;;;;;25.06;44.67;101828.19;5259225;28;20428;-67
2022/08/31 14:55:31;;;;;;;4.97;3.38;;;;;;;25.08;44.69;101847.66;5257244;28;20122;-67
2022/08/31 14:58:07;;;;;;;10.68;8.48;;;;;;;24.95;44.71;101838.41;5258069;28;20058;-66
2022/08/31 15:00:44;;;;;;;4.38;3.63;;;;;;;24.74;44.87;101842.31;5278401;28;20141;-79
2022/08/31 15:03:16;;;;;;;10.50;8.63;;;;;;;24.77;44.96;101842.78;5265978;28;20021;-78
2022/08/31 15:05:49;;;;;;;16.58;10.82;;;;;;;24.74;44.72;101836.63;5276825;28;20059;-78
2022/08/31 15:08:21;;;;;;;8.70;5.30;;;;;;;24.89;44.63;101837.84;5252815;28;20500;-78
2022/08/31 15:10:53;;;;;;;10.02;7.55;;;;;;;24.94;44.48;101840.44;5270126;28;20070;-76
2022/08/31 15:13:25;;;;;;;8.77;6.72;;;;;;;24.98;44.45;101845.38;5278518;28;20017;-74
2022/08/31 15:15:57;;;;;;;7.10;5.18;;;;;;;24.97;44.29;101840.88;5270340;28;20028;-77
2022/08/31 15:18:33;;;;;;;6.03;5.30;;;;;;;25.03;44.30;101834.59;5270836;28;20029;-78
2022/08/31 15:21:04;;;;;;;5.03;3.08;;;;;;;24.90;43.97;101827.31;5275053;28;20025;-75
2022/08/31 15:23:40;;;;;;;8.80;3.38;;;;;;;24.93;44.02;101827.44;5267020;28;20036;-76
2022/08/31 15:26:14;;;;;;;4.70;4.30;;;;;;;24.93;43.80;101826.63;5254825;28;20033;-76
2022/08/31 15:28:45;;;;;;;10.90;7.68;;;;;;;24.94;44.16;101814.06;5256054;28;20025;-76
2022/08/31 15:31:24;;;;;;;14.07;10.55;;;;;;;24.95;44.05;101829.88;5275082;28;20329;-76
2022/08/31 15:33:58;;;;;;;6.00;5.07;;;;;;;24.91;44.02;101829.81;5274177;28;20151;-77
2022/08/31 15:36:31;;;;;;;8.00;3.78;;;;;;;24.88;44.19;101838.25;5257137;28;20024;-77
2022/08/31 15:39:03;;;;;;;3.83;2.72;;;;;;;24.69;43.98;101833.25;5274304;28;20049;-76
2022/08/31 15:41:36;;;;;;;4.15;2.85;;;;;;;24.68;44.06;101838.09;5254524;28;20022;-77
2022/08/31 15:44:09;;;;;;;7.63;5.45;;;;;;;24.61;44.18;101826.56;5259771;28;20020;-77
2022/08/31 15:49:31;;;;;;;7.93;7.13;;;;;;;24.65;44.29;101826.66;5249419;28;20024;-78
2022/08/31 15:52:05;;;;;;;10.88;4.15;;;;;;;24.62;44.62;101825.38;5273882;28;20365;-75
2022/08/31 15:54:39;;;;;;;4.18;3.45;;;;;;;24.63;44.52;101827.03;5270945;28;20032;-77
2022/08/31 15:57:11;;;;;;;3.42;2.28;;;;;;;24.58;44.30;101829.31;5266164;28;20021;-80
2022/08/31 15:59:42;;;;;;;6.85;2.65;;;;;;;24.64;44.04;101819.31;5269129;28;20047;-81
2022/08/31 16:02:14;;;;;;;4.47;2.55;;;;;;;24.73;44.38;101820.81;5232778;22;20056;-77
2022/08/31 16:04:47;;;;;;;6.50;3.25;;;;;;;24.71;43.91;101822.38;5205714;28;20037;-77
2022/08/31 16:07:21;;;;;;;4.20;2.63;;;;;;;24.74;43.71;101825.28;5215917;28;20033;-77
2022/08/31 16:09:53;;;;;;;5.30;3.22;;;;;;;24.77;43.19;101823.75;5203240;28;20026;-77
2022/08/31 16:12:26;;;;;;;5.40;2.70;;;;;;;24.67;43.47;101816.63;5211214;28;20037;-76
2022/08/31 16:14:58;;;;;;;3.15;2.70;;;;;;;24.65;43.54;101824.66;5198057;28;20037;-80
2022/08/31 16:17:29;;;;;;;4.35;3.10;;;;;;;24.69;43.77;101819.06;5204750;28;20108;-79
2022/08/31 16:20:04;;;;;;;4.00;2.40;;;;;;;24.63;43.38;101815.69;5213388;28;20022;-79
2022/08/31 16:22:35;;;;;;;4.88;2.90;;;;;;;24.62;43.50;101819.72;5215493;28;20438;-80
2022/08/31 16:25:11;;;;;;;6.75;2.65;;;;;;;24.69;43.34;101819.88;5219345;28;20081;-79
2022/08/31 16:27:43;;;;;;;18.02;15.98;;;;;;;24.74;43.31;101822.44;5220057;28;20045;-79
2022/08/31 16:30:14;;;;;;;17.00;13.82;;;;;;;24.86;43.12;101820.75;5214199;28;20029;-79
2022/08/31 16:32:49;;;;;;;4.30;2.78;;;;;;;24.77;43.72;101811.56;5211754;28;20072;-79
2022/08/31 16:35:21;;;;;;;5.05;3.95;;;;;;;24.86;43.08;101818.72;5223461;28;20025;-82
2022/08/31 16:37:53;;;;;;;4.47;3.30;;;;;;;24.83;43.08;101810.13;5217153;28;20022;-82
2022/08/31 16:40:24;;;;;;;4.78;2.63;;;;;;;24.76;42.82;101812.78;5231312;28;20101;-82
2022/08/31 16:42:55;;;;;;;4.63;3.50;;;;;;;24.74;42.68;101811.09;5213079;28;20426;-81
2022/08/31 16:45:27;;;;;;;6.78;3.42;;;;;;;24.77;42.91;101808.75;5218574;28;20381;-82
2022/08/31 16:51:00;;;;;;;2.60;2.15;;;;;;;24.69;42.60;101807.72;5181500;28;20097;-80
2022/08/31 16:53:34;;;;;;;3.50;2.30;;;;;;;24.60;42.52;101809.91;5204902;28;20525;-78
2022/08/31 16:56:05;;;;;;;2.85;1.95;;;;;;;24.48;42.93;101814.44;5212432;28;20381;-78
2022/08/31 16:58:37;;;;;;;5.40;2.40;;;;;;;24.42;42.99;101812.22;5210433;28;20022;-78
2022/08/31 17:01:11;;;;;;;3.83;2.88;;;;;;;24.44;43.36;101818.31;5215532;28;20409;-79
2022/08/31 17:03:46;;;;;;;4.30;2.53;;;;;;;24.47;42.72;101823.34;5217665;28;20034;-78
2022/08/31 17:06:18;;;;;;;3.95;2.72;;;;;;;24.44;43.11;101812.66;5211893;28;20025;-78
2022/08/31 17:08:56;;;;;;;2.72;2.47;;;;;;;24.35;43.35;101821.34;5215123;28;20030;-79
2022/08/31 17:11:30;;;;;;;3.65;2.30;;;;;;;24.28;43.12;101816.25;5208348;28;20068;-80
2022/08/31 17:14:05;;;;;;;4.10;2.50;;;;;;;24.26;43.32;101817.81;5214843;28;20022;-78
2022/08/31 17:16:38;;;;;;;7.88;2.72;;;;;;;24.26;43.11;101815.81;5212348;28;20048;-78
2022/08/31 17:19:16;;;;;;;4.57;2.20;;;;;;;24.14;43.29;101813.03;5207337;28;20031;-79
2022/08/31 17:21:49;;;;;;;4.30;2.78;;;;;;;24.08;43.33;101811.63;5216485;28;20082;-78
2022/08/31 17:24:27;;;;;;;4.22;2.30;;;;;;;23.97;43.48;101808.47;5202973;28;20497;-79
2022/08/31 17:27:01;;;;;;;5.03;2.60;;;;;;;23.98;43.64;101814.94;5205550;28;20045;-79
2022/08/31 17:29:36;;;;;;;4.97;2.90;;;;;;;23.93;43.54;101813.22;5191091;28;20056;-80
2022/08/31 17:32:08;;;;;;;4.57;2.40;;;;;;;23.96;43.71;101815.31;5220615;28;20124;-80
